sensor_id;sensor_type;location;lat;lon;timestamp;pressure;altitude;pressure_sealevel;temperature;humidity
31873;BME280;22407;42.820;23.374;2023-10-31T00:02:18;95914.44;;;7.17;85.44
31873;BME280;22407;42.820;23.374;2023-10-31T00:04:45;95915.69;;;6.86;87.53
31873;BME280;22407;42.820;23.374;2023-10-31T00:07:10;95914.03;;;6.90;87.57
31873;BME280;22407;42.820;23.374;2023-10-31T00:09:36;95916.41;;;6.96;87.03
31873;BME280;22407;42.820;23.374;2023-10-31T00:12:04;95905.00;;;7.14;86.18
31873;BME280;22407;42.820;23.374;2023-10-31T00:14:30;95906.97;;;7.04;87.46
31873;BME280;22407;42.820;23.374;2023-10-31T00:16:56;95917.13;;;6.64;87.79
31873;BME280;22407;42.820;23.374;2023-10-31T00:19:21;95901.34;;;6.47;87.37
31873;BME280;22407;42.820;23.374;2023-10-31T00:21:47;95903.47;;;6.45;88.45
31873;BME280;22407;42.820;23.374;2023-10-31T00:24:12;95906.09;;;6.60;87.74
31873;BME280;22407;42.820;23.374;2023-10-31T00:26:38;95905.66;;;6.33;89.34
31873;BME280;22407;42.820;23.374;2023-10-31T00:29:03;95912.34;;;6.51;89.11
31873;BME280;22407;42.820;23.374;2023-10-31T00:31:29;95897.34;;;6.30;89.99
31873;BME280;22407;42.820;23.374;2023-10-31T00:33:54;95893.44;;;6.66;86.83
31873;BME280;22407;42.820;23.374;2023-10-31T00:36:20;95893.44;;;6.66;87.28
31873;BME280;22407;42.820;23.374;2023-10-31T00:38:46;95899.19;;;6.39;89.50
31873;BME280;22407;42.820;23.374;2023-10-31T00:41:12;95902.41;;;6.41;90.09
31873;BME280;22407;42.820;23.374;2023-10-31T00:43:37;95889.06;;;6.11;89.96
31873;BME280;22407;42.820;23.374;2023-10-31T00:46:03;95892.56;;;6.07;90.38
31873;BME280;22407;42.820;23.374;2023-10-31T00:48:30;95889.88;;;6.07;90.66
31873;BME280;22407;42.820;23.374;2023-10-31T00:51:02;95884.50;;;6.07;89.92
31873;BME280;22407;42.820;23.374;2023-10-31T00:53:27;95886.16;;;5.88;90.91
31873;BME280;22407;42.820;23.374;2023-10-31T00:55:53;95871.88;;;6.12;90.72
31873;BME280;22407;42.820;23.374;2023-10-31T00:58:18;95867.31;;;6.08;90.55
31873;BME280;22407;42.820;23.374;2023-10-31T01:00:44;95869.16;;;6.27;89.56
31873;BME280;22407;42.820;23.374;2023-10-31T01:03:09;95870.06;;;6.61;88.09
31873;BME280;22407;42.820;23.374;2023-10-31T01:05:35;95868.53;;;6.40;88.11
31873;BME280;22407;42.820;23.374;2023-10-31T01:08:00;95874.22;;;6.29;88.67
31873;BME280;22407;42.820;23.374;2023-10-31T01:10:26;95870.75;;;6.28;88.57
31873;BME280;22407;42.820;23.374;2023-10-31T01:12:51;95865.91;;;6.20;88.71
31873;BME280;22407;42.820;23.374;2023-10-31T01:15:17;95857.28;;;6.33;87.90
31873;BME280;22407;42.820;23.374;2023-10-31T01:17:42;95864.84;;;6.21;88.71
31873;BME280;22407;42.820;23.374;2023-10-31T01:20:08;95855.47;;;6.14;88.46
31873;BME280;22407;42.820;23.374;2023-10-31T01:22:35;95858.91;;;6.29;88.88
31873;BME280;22407;42.820;23.374;2023-10-31T01:25:01;95856.63;;;5.93;88.77
31873;BME280;22407;42.820;23.374;2023-10-31T01:27:26;95854.75;;;5.74;90.39
31873;BME280;22407;42.820;23.374;2023-10-31T01:29:52;95867.38;;;5.73;90.59
31873;BME280;22407;42.820;23.374;2023-10-31T01:32:17;95854.78;;;5.79;90.04
31873;BME280;22407;42.820;23.374;2023-10-31T01:34:43;95849.63;;;5.87;89.16
31873;BME280;22407;42.820;23.374;2023-10-31T01:37:09;95856.06;;;6.01;88.28
31873;BME280;22407;42.820;23.374;2023-10-31T01:39:36;95860.34;;;6.02;88.07
31873;BME280;22407;42.820;23.374;2023-10-31T01:42:02;95866.00;;;5.91;89.33
31873;BME280;22407;42.820;23.374;2023-10-31T01:44:27;95860.09;;;5.98;87.70
31873;BME280;22407;42.820;23.374;2023-10-31T01:46:53;95865.97;;;6.05;87.16
31873;BME280;22407;42.820;23.374;2023-10-31T01:49:18;95872.44;;;6.04;86.40
31873;BME280;22407;42.820;23.374;2023-10-31T01:51:45;95865.72;;;6.02;85.95
31873;BME280;22407;42.820;23.374;2023-10-31T01:54:12;95863.03;;;5.97;86.19
31873;BME280;22407;42.820;23.374;2023-10-31T01:56:38;95856.91;;;5.62;87.58
31873;BME280;22407;42.820;23.374;2023-10-31T01:59:05;95852.88;;;5.69;87.62
31873;BME280;22407;42.820;23.374;2023-10-31T02:01:32;95857.94;;;5.91;85.83
31873;BME280;22407;42.820;23.374;2023-10-31T02:03:57;95852.59;;;5.61;87.48
31873;BME280;22407;42.820;23.374;2023-10-31T02:06:24;95849.94;;;5.66;87.38
31873;BME280;22407;42.820;23.374;2023-10-31T02:08:49;95842.94;;;5.60;87.08
31873;BME280;22407;42.820;23.374;2023-10-31T02:11:15;95842.97;;;5.30;87.73
31873;BME280;22407;42.820;23.374;2023-10-31T02:13:40;95830.59;;;5.54;86.83
31873;BME280;22407;42.820;23.374;2023-10-31T02:16:06;95841.06;;;5.55;86.14
31873;BME280;22407;42.820;23.374;2023-10-31T02:18:32;95841.09;;;5.50;86.71
31873;BME280;22407;42.820;23.374;2023-10-31T02:20:59;95842.97;;;5.30;88.45
31873;BME280;22407;42.820;23.374;2023-10-31T02:23:24;95849.13;;;5.55;86.78
31873;BME280;22407;42.820;23.374;2023-10-31T02:25:50;95837.59;;;5.40;87.33
31873;BME280;22407;42.820;23.374;2023-10-31T02:28:16;95840.81;;;4.87;89.39
31873;BME280;22407;42.820;23.374;2023-10-31T02:30:41;95832.66;;;4.42;92.01
31873;BME280;22407;42.820;23.374;2023-10-31T02:33:07;95837.44;;;4.30;92.29
31873;BME280;22407;42.820;23.374;2023-10-31T02:35:32;95834.78;;;4.30;93.40
31873;BME280;22407;42.820;23.374;2023-10-31T02:37:58;95833.47;;;4.38;94.28
31873;BME280;22407;42.820;23.374;2023-10-31T02:40:23;95827.34;;;4.52;94.34
31873;BME280;22407;42.820;23.374;2023-10-31T02:42:49;95827.91;;;4.79;93.96
31873;BME280;22407;42.820;23.374;2023-10-31T02:45:15;95836.50;;;4.91;93.65
31873;BME280;22407;42.820;23.374;2023-10-31T02:47:40;95838.69;;;4.94;92.85
31873;BME280;22407;42.820;23.374;2023-10-31T02:50:06;95840.81;;;5.02;92.63
31873;BME280;22407;42.820;23.374;2023-10-31T02:52:32;95848.88;;;5.12;90.15
31873;BME280;22407;42.820;23.374;2023-10-31T02:54:57;95849.69;;;5.07;90.01
31873;BME280;22407;42.820;23.374;2023-10-31T02:57:22;95842.44;;;4.88;90.11
31873;BME280;22407;42.820;23.374;2023-10-31T02:59:48;95842.09;;;4.60;91.38
31873;BME280;22407;42.820;23.374;2023-10-31T03:02:13;95849.78;;;4.26;92.93
31873;BME280;22407;42.820;23.374;2023-10-31T03:04:39;95848.44;;;4.24;93.95
31873;BME280;22407;42.820;23.374;2023-10-31T03:07:05;95839.88;;;4.32;94.69
31873;BME280;22407;42.820;23.374;2023-10-31T03:09:30;95843.97;;;4.54;94.75
31873;BME280;22407;42.820;23.374;2023-10-31T03:11:55;95852.53;;;4.46;94.02
31873;BME280;22407;42.820;23.374;2023-10-31T03:14:21;95837.00;;;4.53;93.64
31873;BME280;22407;42.820;23.374;2023-10-31T03:16:46;95847.19;;;4.61;93.98
31873;BME280;22407;42.820;23.374;2023-10-31T03:19:12;95833.81;;;4.76;93.17
31873;BME280;22407;42.820;23.374;2023-10-31T03:21:37;95835.47;;;4.87;92.36
31873;BME280;22407;42.820;23.374;2023-10-31T03:24:03;95829.00;;;4.73;94.27
31873;BME280;22407;42.820;23.374;2023-10-31T03:26:29;95821.78;;;4.89;93.06
31873;BME280;22407;42.820;23.374;2023-10-31T03:28:54;95820.97;;;4.78;94.54
31873;BME280;22407;42.820;23.374;2023-10-31T03:31:22;95825.25;;;4.84;93.57
31873;BME280;22407;42.820;23.374;2023-10-31T03:33:48;95825.25;;;4.89;94.22
31873;BME280;22407;42.820;23.374;2023-10-31T03:36:14;95830.09;;;5.07;92.14
31873;BME280;22407;42.820;23.374;2023-10-31T03:38:39;95817.50;;;4.93;92.77
31873;BME280;22407;42.820;23.374;2023-10-31T03:41:05;95826.63;;;5.02;92.73
31873;BME280;22407;42.820;23.374;2023-10-31T03:43:31;95814.81;;;5.17;91.69
31873;BME280;22407;42.820;23.374;2023-10-31T03:45:57;95813.16;;;4.77;91.65
31873;BME280;22407;42.820;23.374;2023-10-31T03:48:22;95814.50;;;4.74;92.58
31873;BME280;22407;42.820;23.374;2023-10-31T03:50:48;95810.50;;;4.82;92.52
31873;BME280;22407;42.820;23.374;2023-10-31T03:53:14;95819.34;;;4.82;92.80
31873;BME280;22407;42.820;23.374;2023-10-31T03:55:40;95818.53;;;4.77;93.04
31873;BME280;22407;42.820;23.374;2023-10-31T03:58:06;95808.09;;;4.75;92.77
31873;BME280;22407;42.820;23.374;2023-10-31T04:00:31;95802.41;;;4.57;94.48
31873;BME280;22407;42.820;23.374;2023-10-31T04:02:57;95804.06;;;4.63;95.50
31873;BME280;22407;42.820;23.374;2023-10-31T04:05:22;95808.06;;;4.70;95.13
31873;BME280;22407;42.820;23.374;2023-10-31T04:07:49;95807.00;;;4.91;94.31
31873;BME280;22407;42.820;23.374;2023-10-31T04:10:15;95807.28;;;5.09;93.05
31873;BME280;22407;42.820;23.374;2023-10-31T04:12:41;95811.56;;;4.96;92.50
31873;BME280;22407;42.820;23.374;2023-10-31T04:15:07;95808.91;;;4.91;91.52
31873;BME280;22407;42.820;23.374;2023-10-31T04:17:33;95806.47;;;4.84;91.05
31873;BME280;22407;42.820;23.374;2023-10-31T04:19:59;95803.00;;;4.99;89.76
31873;BME280;22407;42.820;23.374;2023-10-31T04:22:24;95794.94;;;5.08;89.63
31873;BME280;22407;42.820;23.374;2023-10-31T04:24:50;95792.00;;;5.00;89.37
31873;BME280;22407;42.820;23.374;2023-10-31T04:27:15;95788.25;;;4.91;90.25
31873;BME280;22407;42.820;23.374;2023-10-31T04:29:41;95791.47;;;4.78;91.24
31873;BME280;22407;42.820;23.374;2023-10-31T04:32:06;95794.91;;;4.59;92.26
31873;BME280;22407;42.820;23.374;2023-10-31T04:34:32;95805.88;;;4.42;92.64
31873;BME280;22407;42.820;23.374;2023-10-31T04:36:57;95805.91;;;4.52;92.87
31873;BME280;22407;42.820;23.374;2023-10-31T04:39:23;95813.41;;;4.60;91.03
31873;BME280;22407;42.820;23.374;2023-10-31T04:41:49;95802.97;;;4.64;90.83
31873;BME280;22407;42.820;23.374;2023-10-31T04:44:14;95806.44;;;4.59;89.57
31873;BME280;22407;42.820;23.374;2023-10-31T04:46:40;95815.28;;;4.65;90.21
31873;BME280;22407;42.820;23.374;2023-10-31T04:49:05;95816.88;;;4.51;89.44
31873;BME280;22407;42.820;23.374;2023-10-31T04:51:35;95826.78;;;4.50;90.35
31873;BME280;22407;42.820;23.374;2023-10-31T04:54:00;95833.28;;;4.64;88.29
31873;BME280;22407;42.820;23.374;2023-10-31T04:56:26;95832.31;;;4.14;90.30
31873;BME280;22407;42.820;23.374;2023-10-31T04:58:51;95829.75;;;3.83;91.41
31873;BME280;22407;42.820;23.374;2023-10-31T05:01:17;95839.44;;;3.89;91.69
31873;BME280;22407;42.820;23.374;2023-10-31T05:03:42;95827.16;;;4.03;92.44
31873;BME280;22407;42.820;23.374;2023-10-31T05:06:08;95824.94;;;3.85;93.79
31873;BME280;22407;42.820;23.374;2023-10-31T05:08:34;95823.63;;;3.87;93.77
31873;BME280;22407;42.820;23.374;2023-10-31T05:10:59;95816.97;;;4.00;93.36
31873;BME280;22407;42.820;23.374;2023-10-31T05:13:25;95811.13;;;4.13;93.06
31873;BME280;22407;42.820;23.374;2023-10-31T05:15:50;95813.63;;;4.24;93.09
31873;BME280;22407;42.820;23.374;2023-10-31T05:18:17;95814.88;;;4.07;93.70
31873;BME280;22407;42.820;23.374;2023-10-31T05:20:43;95817.31;;;4.18;93.93
31873;BME280;22407;42.820;23.374;2023-10-31T05:23:08;95821.38;;;4.30;93.28
31873;BME280;22407;42.820;23.374;2023-10-31T05:25:34;95814.41;;;4.29;93.42
31873;BME280;22407;42.820;23.374;2023-10-31T05:28:00;95814.69;;;4.28;93.63
31873;BME280;22407;42.820;23.374;2023-10-31T05:30:25;95824.38;;;4.44;93.23
31873;BME280;22407;42.820;23.374;2023-10-31T05:32:51;95817.13;;;4.49;93.29
31873;BME280;22407;42.820;23.374;2023-10-31T05:35:17;95813.91;;;4.42;93.15
31873;BME280;22407;42.820;23.374;2023-10-31T05:37:43;95823.63;;;4.68;92.05
31873;BME280;22407;42.820;23.374;2023-10-31T05:40:09;95826.84;;;4.75;92.14
31873;BME280;22407;42.820;23.374;2023-10-31T05:42:35;95823.66;;;4.88;90.25
31873;BME280;22407;42.820;23.374;2023-10-31T05:45:00;95813.44;;;4.90;90.69
31873;BME280;22407;42.820;23.374;2023-10-31T05:47:26;95827.94;;;4.94;90.99
31873;BME280;22407;42.820;23.374;2023-10-31T05:49:53;95822.56;;;4.99;91.39
31873;BME280;22407;42.820;23.374;2023-10-31T05:52:18;95837.34;;;5.16;91.00
31873;BME280;22407;42.820;23.374;2023-10-31T05:54:44;95837.06;;;5.23;91.01
31873;BME280;22407;42.820;23.374;2023-10-31T05:57:09;95844.59;;;5.36;91.01
31873;BME280;22407;42.820;23.374;2023-10-31T05:59:35;95849.69;;;5.42;90.03
31873;BME280;22407;42.820;23.374;2023-10-31T06:02:01;95852.38;;;5.52;89.15
31873;BME280;22407;42.820;23.374;2023-10-31T06:04:27;95858.53;;;5.58;87.87
31873;BME280;22407;42.820;23.374;2023-10-31T06:06:52;95873.03;;;5.77;87.04
31873;BME280;22407;42.820;23.374;2023-10-31T06:09:18;95872.47;;;5.70;87.06
31873;BME280;22407;42.820;23.374;2023-10-31T06:11:43;95877.31;;;5.53;87.87
31873;BME280;22407;42.820;23.374;2023-10-31T06:14:10;95872.75;;;5.73;87.25
31873;BME280;22407;42.820;23.374;2023-10-31T06:16:42;95864.41;;;5.75;87.11
31873;BME280;22407;42.820;23.374;2023-10-31T06:19:08;95868.13;;;6.08;86.57
31873;BME280;22407;42.820;23.374;2023-10-31T06:21:34;95871.50;;;6.39;85.56
31873;BME280;22407;42.820;23.374;2023-10-31T06:23:59;95864.22;;;6.39;86.09
31873;BME280;22407;42.820;23.374;2023-10-31T06:26:25;95859.97;;;6.38;85.99
31873;BME280;22407;42.820;23.374;2023-10-31T06:28:50;95863.28;;;6.74;85.64
31873;BME280;22407;42.820;23.374;2023-10-31T06:31:16;95867.25;;;6.86;86.17
31873;BME280;22407;42.820;23.374;2023-10-31T06:33:41;95862.75;;;7.15;85.37
31873;BME280;22407;42.820;23.374;2023-10-31T06:36:07;95853.53;;;7.26;84.18
31873;BME280;22407;42.820;23.374;2023-10-31T06:38:33;95854.69;;;7.48;84.00
31873;BME280;22407;42.820;23.374;2023-10-31T06:40:59;95848.09;;;7.31;85.05
31873;BME280;22407;42.820;23.374;2023-10-31T06:43:25;95860.06;;;7.48;86.53
31873;BME280;22407;42.820;23.374;2023-10-31T06:45:50;95850.53;;;7.89;85.02
31873;BME280;22407;42.820;23.374;2023-10-31T06:48:16;95838.75;;;8.08;85.56
31873;BME280;22407;42.820;23.374;2023-10-31T06:50:42;95844.28;;;8.22;86.23
31873;BME280;22407;42.820;23.374;2023-10-31T06:53:07;95823.56;;;8.59;84.69
31873;BME280;22407;42.820;23.374;2023-10-31T06:55:33;95818.56;;;8.89;85.57
31873;BME280;22407;42.820;23.374;2023-10-31T06:57:59;95828.09;;;9.19;83.83
31873;BME280;22407;42.820;23.374;2023-10-31T07:00:24;95824.09;;;9.35;83.85
31873;BME280;22407;42.820;23.374;2023-10-31T07:02:50;95819.28;;;9.63;83.13
31873;BME280;22407;42.820;23.374;2023-10-31T07:05:15;95818.34;;;9.86;83.65
31873;BME280;22407;42.820;23.374;2023-10-31T07:07:41;95823.56;;;9.96;82.79
31873;BME280;22407;42.820;23.374;2023-10-31T07:10:07;95829.41;;;10.30;83.01
31873;BME280;22407;42.820;23.374;2023-10-31T07:12:33;95828.81;;;10.20;80.90
31873;BME280;22407;42.820;23.374;2023-10-31T07:14:59;95838.34;;;10.44;79.82
31873;BME280;22407;42.820;23.374;2023-10-31T07:17:25;95832.41;;;10.55;79.17
31873;BME280;22407;42.820;23.374;2023-10-31T07:19:51;95835.81;;;10.74;78.53
31873;BME280;22407;42.820;23.374;2023-10-31T07:22:16;95830.63;;;10.78;79.31
31873;BME280;22407;42.820;23.374;2023-10-31T07:24:42;95835.59;;;11.19;77.18
31873;BME280;22407;42.820;23.374;2023-10-31T07:27:08;95828.59;;;11.18;77.79
31873;BME280;22407;42.820;23.374;2023-10-31T07:29:34;95826.22;;;11.39;76.75
31873;BME280;22407;42.820;23.374;2023-10-31T07:32:00;95820.97;;;11.42;76.54
31873;BME280;22407;42.820;23.374;2023-10-31T07:34:26;95828.38;;;11.50;76.42
31873;BME280;22407;42.820;23.374;2023-10-31T07:36:52;95817.03;;;11.92;75.27
31873;BME280;22407;42.820;23.374;2023-10-31T07:39:17;95806.59;;;12.07;73.46
31873;BME280;22407;42.820;23.374;2023-10-31T07:41:43;95812.38;;;12.14;73.71
31873;BME280;22407;42.820;23.374;2023-10-31T07:44:09;95804.88;;;12.20;73.89
31873;BME280;22407;42.820;23.374;2023-10-31T07:46:35;95804.00;;;12.33;72.43
31873;BME280;22407;42.820;23.374;2023-10-31T07:49:00;95791.94;;;12.56;73.70
31873;BME280;22407;42.820;23.374;2023-10-31T07:51:26;95787.53;;;12.77;71.39
31873;BME280;22407;42.820;23.374;2023-10-31T07:53:51;95783.63;;;12.61;71.29
31873;BME280;22407;42.820;23.374;2023-10-31T07:56:21;95781.84;;;13.03;70.82
31873;BME280;22407;42.820;23.374;2023-10-31T07:58:49;95776.06;;;13.30;69.75
31873;BME280;22407;42.820;23.374;2023-10-31T08:01:19;95784.84;;;13.53;69.02
31873;BME280;22407;42.820;23.374;2023-10-31T08:03:48;95779.25;;;13.66;67.17
31873;BME280;22407;42.820;23.374;2023-10-31T08:06:13;95784.19;;;13.73;67.07
31873;BME280;22407;42.820;23.374;2023-10-31T08:08:39;95778.09;;;13.84;67.64
31873;BME280;22407;42.820;23.374;2023-10-31T08:11:08;95782.38;;;14.02;65.68
31873;BME280;22407;42.820;23.374;2023-10-31T08:13:33;95776.25;;;14.22;66.97
31873;BME280;22407;42.820;23.374;2023-10-31T08:15:59;95786.53;;;14.54;65.71
31873;BME280;22407;42.820;23.374;2023-10-31T08:18:24;95775.06;;;14.68;63.84
31873;BME280;22407;42.820;23.374;2023-10-31T08:20:50;95767.41;;;14.91;62.59
31873;BME280;22407;42.820;23.374;2023-10-31T08:23:17;95762.81;;;15.03;61.97
31873;BME280;22407;42.820;23.374;2023-10-31T08:25:43;95760.09;;;15.03;61.18
31873;BME280;22407;42.820;23.374;2023-10-31T08:28:09;95761.56;;;15.21;61.19
31873;BME280;22407;42.820;23.374;2023-10-31T08:30:35;95747.06;;;15.50;60.49
31873;BME280;22407;42.820;23.374;2023-10-31T08:33:01;95748.84;;;15.66;60.29
31873;BME280;22407;42.820;23.374;2023-10-31T08:35:26;95741.41;;;15.99;58.52
31873;BME280;22407;42.820;23.374;2023-10-31T08:37:52;95741.19;;;15.92;57.72
31873;BME280;22407;42.820;23.374;2023-10-31T08:40:17;95737.38;;;16.17;58.47
31873;BME280;22407;42.820;23.374;2023-10-31T08:42:43;95731.84;;;16.37;57.73
31873;BME280;22407;42.820;23.374;2023-10-31T08:45:09;95730.59;;;16.58;55.85
31873;BME280;22407;42.820;23.374;2023-10-31T08:47:34;95712.13;;;16.67;55.76
31873;BME280;22407;42.820;23.374;2023-10-31T08:50:00;95712.47;;;16.90;55.72
31873;BME280;22407;42.820;23.374;2023-10-31T08:52:25;95706.81;;;17.10;55.16
31873;BME280;22407;42.820;23.374;2023-10-31T08:54:51;95707.38;;;17.16;54.29
31873;BME280;22407;42.820;23.374;2023-10-31T08:57:16;95710.81;;;17.52;55.85
31873;BME280;22407;42.820;23.374;2023-10-31T08:59:42;95695.97;;;17.80;53.82
31873;BME280;22407;42.820;23.374;2023-10-31T09:02:08;95692.63;;;17.87;53.36
31873;BME280;22407;42.820;23.374;2023-10-31T09:04:34;95689.31;;;17.66;53.86
31873;BME280;22407;42.820;23.374;2023-10-31T09:07:00;95683.38;;;18.07;53.84
31873;BME280;22407;42.820;23.374;2023-10-31T09:09:26;95689.91;;;18.17;51.74
31873;BME280;22407;42.820;23.374;2023-10-31T09:11:51;95675.88;;;18.34;51.42
31873;BME280;22407;42.820;23.374;2023-10-31T09:14:17;95673.75;;;18.43;52.26
31873;BME280;22407;42.820;23.374;2023-10-31T09:16:42;95665.41;;;18.71;50.53
31873;BME280;22407;42.820;23.374;2023-10-31T09:19:08;95655.69;;;18.92;49.63
31873;BME280;22407;42.820;23.374;2023-10-31T09:21:34;95658.94;;;18.98;50.41
31873;BME280;22407;42.820;23.374;2023-10-31T09:23:59;95652.50;;;19.24;49.71
31873;BME280;22407;42.820;23.374;2023-10-31T09:26:25;95650.84;;;19.39;49.24
31873;BME280;22407;42.820;23.374;2023-10-31T09:28:50;95639.13;;;19.61;49.41
31873;BME280;22407;42.820;23.374;2023-10-31T09:31:19;95637.81;;;19.74;47.91
31873;BME280;22407;42.820;23.374;2023-10-31T09:33:45;95627.59;;;20.15;47.08
31873;BME280;22407;42.820;23.374;2023-10-31T09:36:11;95618.00;;;20.54;46.60
31873;BME280;22407;42.820;23.374;2023-10-31T09:38:38;95617.38;;;20.16;46.65
31873;BME280;22407;42.820;23.374;2023-10-31T09:41:04;95619.06;;;20.24;47.28
31873;BME280;22407;42.820;23.374;2023-10-31T09:43:30;95616.22;;;20.65;46.01
31873;BME280;22407;42.820;23.374;2023-10-31T09:45:57;95608.78;;;20.69;46.09
31873;BME280;22407;42.820;23.374;2023-10-31T09:48:23;95600.25;;;21.03;44.96
31873;BME280;22407;42.820;23.374;2023-10-31T09:50:49;95600.16;;;21.26;45.45
31873;BME280;22407;42.820;23.374;2023-10-31T09:53:15;95595.63;;;21.40;44.17
31873;BME280;22407;42.820;23.374;2023-10-31T09:55:44;95594.72;;;21.33;44.77
31873;BME280;22407;42.820;23.374;2023-10-31T09:58:11;95586.69;;;21.50;43.69
31873;BME280;22407;42.820;23.374;2023-10-31T10:00:37;95577.69;;;21.57;45.38
31873;BME280;22407;42.820;23.374;2023-10-31T10:03:09;95565.50;;;21.97;43.64
31873;BME280;22407;42.820;23.374;2023-10-31T10:05:35;95561.16;;;21.96;42.69
31873;BME280;22407;42.820;23.374;2023-10-31T10:08:01;95548.22;;;22.00;43.32
31873;BME280;22407;42.820;23.374;2023-10-31T10:10:27;95539.69;;;22.16;42.52
31873;BME280;22407;42.820;23.374;2023-10-31T10:12:52;95539.53;;;21.98;40.75
31873;BME280;22407;42.820;23.374;2023-10-31T10:15:18;95531.25;;;21.95;41.81
31873;BME280;22407;42.820;23.374;2023-10-31T10:17:51;95531.25;;;21.98;41.38
31873;BME280;22407;42.820;23.374;2023-10-31T10:20:17;95511.59;;;22.00;42.06
31873;BME280;22407;42.820;23.374;2023-10-31T10:22:43;95514.13;;;22.19;41.00
31873;BME280;22407;42.820;23.374;2023-10-31T10:25:13;95510.91;;;22.13;39.58
31873;BME280;22407;42.820;23.374;2023-10-31T10:27:44;95513.78;;;21.80;41.71
31873;BME280;22407;42.820;23.374;2023-10-31T10:30:12;95511.50;;;21.89;41.23
31873;BME280;22407;42.820;23.374;2023-10-31T10:32:37;95504.13;;;22.00;39.84
31873;BME280;22407;42.820;23.374;2023-10-31T10:35:03;95505.72;;;22.05;39.22
31873;BME280;22407;42.820;23.374;2023-10-31T10:37:29;95500.31;;;21.72;41.11
31873;BME280;22407;42.820;23.374;2023-10-31T10:39:56;95497.44;;;22.01;41.38
31873;BME280;22407;42.820;23.374;2023-10-31T10:42:32;95500.38;;;22.29;40.33
31873;BME280;22407;42.820;23.374;2023-10-31T10:45:02;95485.16;;;22.46;42.14
31873;BME280;22407;42.820;23.374;2023-10-31T10:47:31;95484.41;;;22.52;39.51
31873;BME280;22407;42.820;23.374;2023-10-31T10:49:59;95479.59;;;22.39;37.18
31873;BME280;22407;42.820;23.374;2023-10-31T10:55:08;95473.16;;;22.21;36.67
31873;BME280;22407;42.820;23.374;2023-10-31T10:57:38;95465.56;;;22.68;36.74
31873;BME280;22407;42.820;23.374;2023-10-31T11:00:08;95462.53;;;22.97;35.39
31873;BME280;22407;42.820;23.374;2023-10-31T11:02:39;95447.91;;;22.97;30.24
31873;BME280;22407;42.820;23.374;2023-10-31T11:05:05;95442.44;;;23.04;29.31
31873;BME280;22407;42.820;23.374;2023-10-31T11:07:34;95452.41;;;23.36;29.98
31873;BME280;22407;42.820;23.374;2023-10-31T11:10:00;95440.16;;;23.34;28.55
31873;BME280;22407;42.820;23.374;2023-10-31T11:12:29;95436.19;;;23.10;28.07
31873;BME280;22407;42.820;23.374;2023-10-31T11:15:00;95427.09;;;23.10;27.66
31873;BME280;22407;42.820;23.374;2023-10-31T11:17:30;95436.19;;;23.14;30.50
31873;BME280;22407;42.820;23.374;2023-10-31T11:19:56;95418.44;;;23.15;32.21
31873;BME280;22407;42.820;23.374;2023-10-31T11:22:22;95418.03;;;23.27;34.25
31873;BME280;22407;42.820;23.374;2023-10-31T11:24:51;95410.97;;;23.46;33.09
31873;BME280;22407;42.820;23.374;2023-10-31T11:27:17;95412.16;;;23.52;30.65
31873;BME280;22407;42.820;23.374;2023-10-31T11:29:43;95407.03;;;23.54;29.51
31873;BME280;22407;42.820;23.374;2023-10-31T11:32:09;95403.06;;;23.35;29.36
31873;BME280;22407;42.820;23.374;2023-10-31T11:34:38;95395.97;;;23.41;29.03
31873;BME280;22407;42.820;23.374;2023-10-31T11:37:22;95396.38;;;23.81;29.08
31873;BME280;22407;42.820;23.374;2023-10-31T11:40:21;95380.19;;;23.72;29.25
31873;BME280;22407;42.820;23.374;2023-10-31T11:42:52;95380.56;;;23.88;30.41
31873;BME280;22407;42.820;23.374;2023-10-31T11:45:26;95372.28;;;23.85;28.77
31873;BME280;22407;42.820;23.374;2023-10-31T11:47:52;95375.47;;;23.80;29.35
31873;BME280;22407;42.820;23.374;2023-10-31T11:50:18;95372.28;;;23.60;28.46
31873;BME280;22407;42.820;23.374;2023-10-31T11:52:43;95364.78;;;23.64;27.76
31873;BME280;22407;42.820;23.374;2023-10-31T11:55:10;95360.84;;;23.55;26.73
31873;BME280;22407;42.820;23.374;2023-10-31T11:57:36;95375.06;;;23.57;27.30
31873;BME280;22407;42.820;23.374;2023-10-31T12:00:03;95347.41;;;23.64;29.43
31873;BME280;22407;42.820;23.374;2023-10-31T12:02:32;95355.72;;;23.85;29.32
31873;BME280;22407;42.820;23.374;2023-10-31T12:05:13;95343.06;;;23.87;29.39
31873;BME280;22407;42.820;23.374;2023-10-31T12:07:46;95343.06;;;23.39;30.09
31873;BME280;22407;42.820;23.374;2023-10-31T12:10:12;95347.03;;;23.38;29.23
31873;BME280;22407;42.820;23.374;2023-10-31T12:12:38;95338.75;;;23.31;29.13
31873;BME280;22407;42.820;23.374;2023-10-31T12:15:07;95340.69;;;23.61;30.88
31873;BME280;22407;42.820;23.374;2023-10-31T12:17:34;95328.06;;;23.57;29.67
31873;BME280;22407;42.820;23.374;2023-10-31T12:20:06;95324.13;;;23.82;29.84
31873;BME280;22407;42.820;23.374;2023-10-31T12:22:33;95327.28;;;23.49;27.42
31873;BME280;22407;42.820;23.374;2023-10-31T12:25:07;95329.28;;;23.52;29.98
31873;BME280;22407;42.820;23.374;2023-10-31T12:27:49;95331.22;;;23.62;30.61
31873;BME280;22407;42.820;23.374;2023-10-31T12:30:17;95324.13;;;23.82;31.42
31873;BME280;22407;42.820;23.374;2023-10-31T12:32:43;95324.13;;;23.82;30.59
31873;BME280;22407;42.820;23.374;2023-10-31T12:35:14;95325.69;;;23.90;30.67
31873;BME280;22407;42.820;23.374;2023-10-31T12:37:49;95319.38;;;23.76;29.25
31873;BME280;22407;42.820;23.374;2023-10-31T12:40:20;95313.50;;;23.36;30.08
31873;BME280;22407;42.820;23.374;2023-10-31T12:42:47;95302.00;;;22.92;30.69
31873;BME280;22407;42.820;23.374;2023-10-31T12:45:13;95294.94;;;23.19;31.02
31873;BME280;22407;42.820;23.374;2023-10-31T12:47:40;95287.03;;;23.45;31.20
31873;BME280;22407;42.820;23.374;2023-10-31T12:50:17;95287.03;;;23.42;32.22
31873;BME280;22407;42.820;23.374;2023-10-31T12:52:49;95283.91;;;23.26;32.30
31873;BME280;22407;42.820;23.374;2023-10-31T12:55:20;95272.84;;;23.12;31.39